Details From LFLL - Lyon Saint Exupery
To LIRA - Ciampino
Flight Number -
Tags Generated
Created
Modified
Stats Distance 401 nm / 743 km
Max Altitude 0 ft / 0 m
Waypoints 5
Social Downloads 1
Likes 0
Share VATSIM

Download

Looking for another format? Having issues loading an existing format? Contact us
Advertisement - Login to hide

Notes

Generated

Route

LFLL LEV NORNI R1815 LIRA

ID Type Via Altitude Latitude Longitude Leg Dist Tot Dist Heading (true) Name
O LFLL APT - 0 ft / 0 m 45.73499˚ 5.09188˚ - 0 nm - Lyon Saint Exupery
LEV NDB - 0 ft / 0 m 44.54422˚ 7.61539˚ 128 nm 128 nm 123° / 125° LEVALDIGI NDB
NORNI FIX - 0 ft / 0 m 43.27889˚ 9.97972˚ 127 nm 256 nm 126° / 127° -
R1815 FIX - 0 ft / 0 m 41.80806˚ 12.58883˚ 145 nm 401 nm 127° / 128° -
O LIRA APT - 0 ft / 0 m 41.80806˚ 12.58883˚ 0 nm 401 nm 0° / 180° -

Altitude Profile

Advertisement - Login to hide

Weather


0- 5 10 15 20 25 30 35+ Temperature / ° C

Clouds and Precipitation
Forecast for 2018-05-23 06:00 UTC. Updated 32 minutes ago

Ground ~20,000 ft ~40,000 ft Winds

LFLL

Details ICAO LFLL (LYS)
Name Lyon Saint Exupery
Region France
Timezone Europe/Paris (UTC+2.0)
Stats Elevation 820 ft / 250 m (AMSL)
Location 45.725812° 5.090748°
Runways 2
Magnetic Variation 1.541° E

METAR

LFLL 230330Z 16004KT CAVOK 15/13 Q1016 NOSIG

Decode

TAF

TAF LFLL 222300Z 2300/2406 18005KT 9999 BKN050 TEMPO 2306/2321 3000 SHRA BKN025TCU PROB40 TEMPO 2311/2320 VRB15G25KT 1000 TSRA BKN020 BKN030CB BECMG 2320/2322 CAVOK

Decode

Departure Runways

ID Width Length Bearing (true) Bearing (mag) Surface Threshold Offset Overrun Length
18L 148 ft / 45 m 8,798 ft / 2,682 m 175.13° 173.59° Asphalt 33 ft / 10 m 52 ft / 16 m
18R 148 ft / 45 m 13,149 ft / 4,008 m 175.14° 173.60° Asphalt 16 ft / 5 m 203 ft / 62 m
36L 148 ft / 45 m 13,149 ft / 4,008 m 355.15° 353.61° Asphalt 36 ft / 11 m 151 ft / 46 m
36R 148 ft / 45 m 8,798 ft / 2,682 m 355.13° 353.59° Asphalt 26 ft / 8 m 52 ft / 16 m

LIRA

Details ICAO LIRA (CIA)
Name CIAMPINO
Region Italy
Timezone Europe/Rome (UTC+2.0)
Stats Elevation 427 ft / 130 m (AMSL)
Location 41.799228° 12.594917°
Runways 1
Magnetic Variation 3.103° E

METAR

LIRA 230320Z 02003KT 350V050 9999 -RA SCT020 16/15 Q1014

Decode

TAF

TAF LIRA 222300Z 2300/2324 VRB05KT 9999 SCT030 TEMPO 2300/2303 SHRA BECMG 2310/2312 27010KT TEMPO 2312/2315 TSRA

Decode

Destination Runways

ID Width Length Bearing (true) Bearing (mag) Surface Threshold Offset Overrun Length
15 154 ft / 47 m 7,246 ft / 2,209 m 152.79° 149.69° Asphalt 0 ft / 0 m 0 ft / 0 m
33 154 ft / 47 m 7,246 ft / 2,209 m 332.80° 329.70° Asphalt 0 ft / 0 m 0 ft / 0 m

Approach Navaids

Runway Type Ident Frequency Range Bearing (true) Bearing (mag) Slope Elevation
15 Localiser CIA 109.90 MHz 18 nm / 33 km 152.81° 149.71° - 426 ft / 130 m (AMSL)
15 Glidescope CIA 109.90 MHz 10 nm / 19 km 152.79° 149.69° 3.00° 384 ft / 117 m (AMSL)

Popular Alternatives